Time;durP1;ratioP1;P1;durP2;ratioP2;P2;SDS_P1;SDS_P2;PMS_P1;PMS_P2;Temp;Humidity;BMP_temperature;BMP_pressure;BME280_temperature;BME280_humidity;BME280_pressure;Samples;Min_cycle;Max_cycle;Signal;HPM_P1;HPM_P2
2023/12/24 00:00:25;;;;;;;5.80;3.40;;;;;;;-1.43;70.42;99405.36;109060;1259;65025;-63
2023/12/24 00:03:12;;;;;;;7.60;3.40;;;;;;;-1.48;70.67;99409.95;104898;1258;75161;-65
2023/12/24 00:05:39;;;;;;;10.90;3.70;;;;;;;-1.50;70.77;99417.07;104821;1257;138781;-63
2023/12/24 00:08:05;;;;;;;7.40;3.20;;;;;;;-1.49;70.95;99419.00;104895;1260;61415;-63
2023/12/24 00:10:32;;;;;;;5.60;3.20;;;;;;;-1.47;71.08;99423.77;104932;1257;138135;-62
2023/12/24 00:12:59;;;;;;;8.10;3.30;;;;;;;-1.42;71.37;99431.94;104945;1258;65774;-63
2023/12/24 00:15:25;;;;;;;4.90;3.00;;;;;;;-1.38;71.46;99431.13;104753;1259;138782;-63
2023/12/24 00:17:52;;;;;;;6.80;4.00;;;;;;;-1.35;71.48;99435.71;104729;1260;60992;-63
2023/12/24 00:20:19;;;;;;;9.80;3.60;;;;;;;-1.33;71.55;99438.07;104805;1255;61290;-64
2023/12/24 00:23:02;;;;;;;8.60;4.00;;;;;;;-1.33;71.75;99437.05;104765;1261;137672;-63
2023/12/24 00:25:29;;;;;;;7.30;3.90;;;;;;;-1.33;71.83;99441.64;104760;1260;66416;-63
2023/12/24 00:27:58;;;;;;;6.80;3.40;;;;;;;-1.36;71.74;99443.41;104992;1259;139346;-64
2023/12/24 00:30:28;;;;;;;6.70;3.10;;;;;;;-1.36;71.84;99459.41;104967;1261;61277;-63
2023/12/24 00:32:56;;;;;;;9.80;3.40;;;;;;;-1.37;72.03;99462.50;104938;1258;61335;-63
2023/12/24 00:35:22;;;;;;;7.00;3.50;;;;;;;-1.35;72.18;99464.96;104878;1260;137732;-63
2023/12/24 00:37:49;;;;;;;6.30;3.50;;;;;;;-1.33;72.21;99466.45;104872;1260;67001;-63
2023/12/24 00:40:17;;;;;;;7.00;3.50;;;;;;;-1.30;72.35;99471.93;104778;1260;137506;-63
2023/12/24 00:42:43;;;;;;;6.50;2.90;;;;;;;-1.29;72.36;99475.27;105067;1259;61373;-63
2023/12/24 00:45:11;;;;;;;5.70;3.10;;;;;;;-1.35;72.36;99475.31;105028;1256;61583;-62
2023/12/24 00:47:37;;;;;;;7.30;3.10;;;;;;;-1.40;72.25;99485.38;104835;1257;138795;-62
2023/12/24 00:50:06;;;;;;;7.00;3.10;;;;;;;-1.47;72.22;99493.94;104897;1256;63814;-67
2023/12/24 00:52:33;;;;;;;6.00;2.60;;;;;;;-1.54;72.46;99497.39;108916;1256;138991;-67
2023/12/24 00:55:00;;;;;;;6.80;2.50;;;;;;;-1.57;72.39;99508.05;109149;1255;59013;-68
2023/12/24 00:57:27;;;;;;;3.80;2.40;;;;;;;-1.59;72.56;99511.92;109001;1254;138604;-66
2023/12/24 00:59:54;;;;;;;6.40;2.50;;;;;;;-1.52;72.93;99516.55;109114;1256;75667;-63
2023/12/24 01:02:20;;;;;;;3.90;2.00;;;;;;;-1.45;73.03;99520.05;109005;1255;65326;-64
2023/12/24 01:04:47;;;;;;;5.40;2.10;;;;;;;-1.41;73.06;99520.97;108865;1255;138420;-63
2023/12/24 01:07:15;;;;;;;4.10;2.30;;;;;;;-1.35;72.96;99523.84;109103;1255;58978;-63
2023/12/24 01:09:42;;;;;;;5.30;2.60;;;;;;;-1.28;73.20;99521.13;108980;1255;138685;-63
2023/12/24 01:12:09;;;;;;;7.40;2.70;;;;;;;-1.16;73.27;99525.33;109041;1255;72367;-63
2023/12/24 01:14:35;;;;;;;4.30;2.20;;;;;;;-1.05;73.33;99529.19;109056;1255;65997;-63
2023/12/24 01:17:02;;;;;;;4.90;2.40;;;;;;;-0.98;73.19;99526.10;108916;1257;137660;-63
2023/12/24 01:19:31;;;;;;;5.60;2.40;;;;;;;-0.89;73.31;99526.55;108961;1255;58883;-64
2023/12/24 01:21:57;;;;;;;8.60;2.40;;;;;;;-0.80;73.25;99524.06;109035;1256;137805;-64
2023/12/24 01:24:25;;;;;;;6.50;2.40;;;;;;;-0.77;73.08;99523.20;105608;1259;72924;-64
2023/12/24 01:26:52;;;;;;;5.80;2.30;;;;;;;-0.75;73.18;99522.24;109074;1256;65912;-62
2023/12/24 01:29:18;;;;;;;3.20;1.70;;;;;;;-0.74;73.03;99523.34;108874;1256;138013;-63
2023/12/24 01:31:45;;;;;;;9.30;2.50;;;;;;;-0.76;72.98;99530.26;105847;1256;61244;-64
2023/12/24 01:34:11;;;;;;;4.10;2.00;;;;;;;-0.81;72.69;99532.79;104796;1257;137640;-62
2023/12/24 01:36:39;;;;;;;5.70;2.20;;;;;;;-0.86;72.61;99537.23;104967;1257;75327;-62
2023/12/24 01:39:10;;;;;;;5.00;2.20;;;;;;;-0.89;72.77;99535.88;109090;1256;66629;-68
2023/12/24 01:41:36;;;;;;;6.30;2.40;;;;;;;-0.90;72.79;99535.29;108823;1256;138761;-63
2023/12/24 01:44:03;;;;;;;5.40;2.20;;;;;;;-0.97;72.56;99532.17;106758;1255;61608;-68
2023/12/24 01:46:30;;;;;;;4.60;2.20;;;;;;;-1.04;72.66;99532.52;104789;1257;138648;-67
2023/12/24 01:48:56;;;;;;;5.70;2.20;;;;;;;-1.08;72.70;99534.38;104789;1258;75706;-67
2023/12/24 01:51:23;;;;;;;7.90;2.40;;;;;;;-1.09;72.74;99537.92;104860;1259;67626;-63
2023/12/24 01:53:50;;;;;;;5.90;2.50;;;;;;;-1.11;72.83;99545.23;104705;1260;138522;-63
2023/12/24 01:56:17;;;;;;;11.20;5.00;;;;;;;-1.18;72.72;99543.31;109040;1254;58984;-64
2023/12/24 01:58:44;;;;;;;18.40;8.20;;;;;;;-1.27;72.68;99543.88;108927;1256;137755;-68
2023/12/24 02:01:10;;;;;;;22.70;13.60;;;;;;;-1.36;72.60;99541.02;109104;1256;75916;-68
2023/12/24 02:03:37;;;;;;;30.50;18.70;;;;;;;-1.44;72.81;99539.22;108828;1256;138126;-68
2023/12/24 02:06:04;;;;;;;21.90;12.30;;;;;;;-1.51;72.85;99542.77;108977;1255;74391;-68
2023/12/24 02:08:30;;;;;;;29.50;15.50;;;;;;;-1.59;72.88;99546.82;108924;1256;58999;-66
2023/12/24 02:10:57;;;;;;;36.80;20.60;;;;;;;-1.67;72.81;99548.80;108852;1256;137988;-67
2023/12/24 02:13:24;;;;;;;31.20;16.40;;;;;;;-1.75;72.94;99547.66;108968;1256;74429;-63
2023/12/24 02:15:51;;;;;;;47.70;23.80;;;;;;;-1.84;73.05;99543.77;108903;1257;138751;-63
2023/12/24 02:18:18;;;;;;;59.60;26.20;;;;;;;-1.92;73.08;99546.25;108966;1257;72768;-63
2023/12/24 02:20:45;;;;;;;121.30;51.00;;;;;;;-1.99;73.13;99548.10;108996;1256;59638;-67
2023/12/24 02:23:12;;;;;;;147.10;58.50;;;;;;;-2.05;73.47;99552.08;108846;1254;139953;-67
2023/12/24 02:25:38;;;;;;;109.10;45.50;;;;;;;-2.09;73.40;99552.16;109104;1256;74198;-67
2023/12/24 02:28:09;;;;;;;195.80;81.20;;;;;;;-2.14;73.31;99553.29;108999;1256;138948;-67
2023/12/24 02:30:44;;;;;;;104.10;47.20;;;;;;;-2.18;73.47;99551.16;108967;1256;73285;-68
2023/12/24 02:33:12;;;;;;;50.40;27.80;;;;;;;-2.22;73.52;99558.34;108977;1255;59222;-68
2023/12/24 02:35:39;;;;;;;51.20;25.10;;;;;;;-2.27;73.54;99560.30;108159;1260;140007;-63
2023/12/24 02:38:05;;;;;;;36.20;23.70;;;;;;;-2.29;73.70;99561.70;104902;1262;72874;-68
2023/12/24 02:40:32;;;;;;;33.20;21.90;;;;;;;-2.32;73.92;99563.12;104626;1262;138661;-67
2023/12/24 02:42:59;;;;;;;21.60;15.80;;;;;;;-2.34;73.90;99571.05;104830;1260;72205;-67
2023/12/24 02:45:25;;;;;;;11.80;7.70;;;;;;;-2.37;74.05;99568.67;104781;1256;138834;-65
2023/12/24 02:47:52;;;;;;;9.70;5.50;;;;;;;-2.39;73.99;99573.15;104799;1256;61234;-68
2023/12/24 02:50:19;;;;;;;10.00;4.50;;;;;;;-2.41;74.19;99575.65;104778;1254;75585;-68
2023/12/24 02:52:46;;;;;;;9.70;3.70;;;;;;;-2.42;74.26;99577.33;108868;1256;137760;-67
2023/12/24 02:55:13;;;;;;;8.10;3.50;;;;;;;-2.43;74.39;99584.14;109070;1256;71393;-67
2023/12/24 02:57:39;;;;;;;7.60;3.20;;;;;;;-2.42;74.46;99591.04;108991;1255;138089;-67
2023/12/24 03:00:08;;;;;;;6.80;3.30;;;;;;;-2.43;74.35;99593.06;109133;1255;60978;-67
2023/12/24 03:02:35;;;;;;;7.30;3.70;;;;;;;-2.45;74.43;99590.17;109010;1256;74913;-67
2023/12/24 03:05:02;;;;;;;8.30;3.30;;;;;;;-2.46;74.52;99596.46;108942;1257;137655;-67
2023/12/24 03:07:28;;;;;;;5.90;3.20;;;;;;;-2.47;74.56;99599.14;109069;1256;72246;-67
2023/12/24 03:09:55;;;;;;;7.70;3.20;;;;;;;-2.48;74.62;99601.48;108956;1256;138589;-68
2023/12/24 03:12:21;;;;;;;11.60;4.60;;;;;;;-2.49;74.69;99600.09;105095;1256;61282;-67
2023/12/24 03:14:48;;;;;;;10.30;3.80;;;;;;;-2.51;74.76;99600.52;104926;1257;73167;-68
2023/12/24 03:17:15;;;;;;;8.40;3.10;;;;;;;-2.51;74.85;99598.58;104926;1257;138734;-68
2023/12/24 03:19:42;;;;;;;7.60;3.10;;;;;;;-2.52;74.98;99602.70;104906;1257;71869;-68
2023/12/24 03:22:09;;;;;;;7.80;3.30;;;;;;;-2.52;74.98;99603.70;108958;1255;138441;-67
2023/12/24 03:24:35;;;;;;;7.90;3.30;;;;;;;-2.49;75.11;99609.33;108935;1256;59459;-66
2023/12/24 03:27:02;;;;;;;10.10;3.30;;;;;;;-2.47;75.21;99614.79;109068;1256;73653;-66
2023/12/24 03:29:29;;;;;;;9.30;3.10;;;;;;;-2.46;75.19;99614.33;108910;1256;138326;-67
2023/12/24 03:31:56;;;;;;;6.00;2.70;;;;;;;-2.45;75.10;99616.81;109093;1255;71364;-68
2023/12/24 03:34:22;;;;;;;7.40;3.10;;;;;;;-2.44;75.18;99619.75;108973;1255;138114;-67
2023/12/24 03:36:49;;;;;;;8.20;3.20;;;;;;;-2.43;75.27;99624.01;109005;1256;59116;-67
2023/12/24 03:39:16;;;;;;;8.00;2.70;;;;;;;-2.41;75.27;99622.73;108954;1255;75123;-67
2023/12/24 03:41:42;;;;;;;9.60;3.00;;;;;;;-2.39;75.34;99626.61;108971;1256;138244;-68
2023/12/24 03:44:09;;;;;;;7.00;2.40;;;;;;;-2.38;75.23;99627.55;109057;1255;71178;-68
2023/12/24 03:46:36;;;;;;;7.70;3.20;;;;;;;-2.37;75.35;99627.41;108999;1256;138109;-68
2023/12/24 03:49:02;;;;;;;7.90;2.90;;;;;;;-2.37;75.25;99634.29;109094;1256;58976;-68
2023/12/24 03:51:29;;;;;;;8.60;2.90;;;;;;;-2.37;75.36;99637.39;108997;1255;138356;-68
2023/12/24 03:53:55;;;;;;;7.60;3.10;;;;;;;-2.37;75.50;99635.48;109030;1259;66195;-68
2023/12/24 03:56:22;;;;;;;9.00;3.00;;;;;;;-2.37;75.57;99633.61;109016;1256;72683;-67
2023/12/24 03:58:49;;;;;;;6.50;3.10;;;;;;;-2.37;75.50;99633.94;108990;1255;137562;-67
2023/12/24 04:01:15;;;;;;;5.00;2.50;;;;;;;-2.38;75.57;99639.76;109121;1255;59124;-67
2023/12/24 04:03:44;;;;;;;5.70;2.80;;;;;;;-2.38;75.71;99637.02;107959;1258;138474;-67
2023/12/24 04:06:13;;;;;;;6.10;2.50;;;;;;;-2.37;75.82;99639.26;104845;1256;65917;-67
2023/12/24 04:08:40;;;;;;;7.70;2.70;;;;;;;-2.38;75.92;99633.38;108980;1254;73868;-68
2023/12/24 04:11:16;;;;;;;6.90;2.70;;;;;;;-2.38;75.96;99630.66;108864;1256;138154;-68
2023/12/24 04:13:43;;;;;;;6.10;2.60;;;;;;;-2.38;76.07;99627.20;109085;1258;59861;-64
2023/12/24 04:16:10;;;;;;;7.00;2.70;;;;;;;-2.37;76.12;99626.56;109006;1258;138700;-64
2023/12/24 04:18:36;;;;;;;5.80;2.70;;;;;;;-2.35;76.32;99626.14;109050;1256;64708;-63
2023/12/24 04:21:03;;;;;;;9.10;3.20;;;;;;;-2.32;76.37;99625.45;106594;1256;72492;-63
2023/12/24 04:23:30;;;;;;;10.60;3.80;;;;;;;-2.30;76.59;99625.92;104858;1257;138410;-68
2023/12/24 04:25:57;;;;;;;6.90;3.50;;;;;;;-2.28;76.54;99621.56;104868;1256;61443;-67
2023/12/24 04:28:24;;;;;;;6.00;3.40;;;;;;;-2.27;76.70;99621.65;104893;1256;138273;-67
2023/12/24 04:30:50;;;;;;;10.00;4.00;;;;;;;-2.24;76.84;99627.48;104965;1256;67231;-67
2023/12/24 04:33:18;;;;;;;6.80;3.00;;;;;;;-2.22;76.97;99630.36;104919;1256;71758;-68
2023/12/24 04:35:45;;;;;;;7.60;2.70;;;;;;;-2.18;76.96;99630.89;108916;1256;137944;-62
2023/12/24 04:38:12;;;;;;;6.20;2.80;;;;;;;-2.14;77.15;99637.98;109025;1255;61542;-63
2023/12/24 04:40:38;;;;;;;5.00;2.30;;;;;;;-2.11;77.32;99647.63;109010;1256;138741;-62
2023/12/24 04:43:05;;;;;;;9.20;2.90;;;;;;;-2.07;77.35;99645.10;109109;1255;66132;-63
2023/12/24 04:45:32;;;;;;;11.10;2.60;;;;;;;-2.03;77.26;99648.77;108955;1255;139702;-63
2023/12/24 04:47:59;;;;;;;4.80;2.50;;;;;;;-1.99;77.34;99648.99;109040;1255;58975;-63
2023/12/24 04:50:26;;;;;;;7.50;2.50;;;;;;;-1.94;77.28;99655.48;109059;1255;60276;-63
2023/12/24 04:52:52;;;;;;;6.20;2.60;;;;;;;-1.89;77.31;99658.52;108915;1255;138687;-63
2023/12/24 04:55:19;;;;;;;7.00;2.60;;;;;;;-1.85;77.38;99663.41;109122;1255;63993;-63
2023/12/24 04:57:46;;;;;;;6.60;2.10;;;;;;;-1.81;77.43;99663.48;108896;1254;138740;-68
2023/12/24 05:00:13;;;;;;;6.50;2.60;;;;;;;-1.77;77.50;99664.90;109086;1255;58977;-68
2023/12/24 05:02:40;;;;;;;9.70;2.90;;;;;;;-1.73;77.36;99668.52;109043;1256;60044;-68
2023/12/24 05:05:06;;;;;;;7.70;2.90;;;;;;;-1.71;77.23;99670.19;108980;1255;137439;-68
2023/12/24 05:07:33;;;;;;;6.00;2.50;;;;;;;-1.71;77.20;99669.33;109018;1256;65071;-68
2023/12/24 05:10:01;;;;;;;4.90;2.80;;;;;;;-1.70;77.31;99667.17;108948;1255;137831;-68
2023/12/24 05:12:27;;;;;;;6.80;3.40;;;;;;;-1.68;77.30;99667.43;107491;1258;61383;-63
2023/12/24 05:14:54;;;;;;;8.80;2.70;;;;;;;-1.68;77.24;99663.47;104970;1255;61594;-64
2023/12/24 05:17:21;;;;;;;9.70;3.00;;;;;;;-1.68;77.37;99668.30;104997;1256;138524;-63
2023/12/24 05:19:48;;;;;;;8.40;2.30;;;;;;;-1.67;77.20;99669.58;104926;1256;66499;-63
2023/12/24 05:22:14;;;;;;;6.40;2.80;;;;;;;-1.66;77.31;99671.48;104809;1257;138553;-63
2023/12/24 05:24:41;;;;;;;6.90;2.50;;;;;;;-1.65;77.52;99671.91;105058;1256;61246;-63
2023/12/24 05:27:08;;;;;;;7.10;2.00;;;;;;;-1.63;77.45;99674.77;104841;1256;61359;-67
2023/12/24 05:29:34;;;;;;;9.30;2.40;;;;;;;-1.61;77.40;99680.39;104929;1260;138731;-68
2023/12/24 05:32:02;;;;;;;9.00;2.60;;;;;;;-1.60;77.42;99680.09;104888;1258;63830;-64
2023/12/24 05:34:28;;;;;;;10.80;2.30;;;;;;;-1.57;77.47;99680.98;108949;1256;138147;-62
2023/12/24 05:36:55;;;;;;;4.70;2.40;;;;;;;-1.53;77.50;99677.54;106707;1255;61369;-64
2023/12/24 05:39:22;;;;;;;8.80;2.20;;;;;;;-1.49;77.63;99679.82;104845;1258;61342;-68
2023/12/24 05:41:48;;;;;;;4.10;2.00;;;;;;;-1.45;77.54;99680.24;108737;1255;138180;-68
2023/12/24 05:44:15;;;;;;;3.00;2.00;;;;;;;-1.39;77.57;99683.84;109048;1256;66475;-68
2023/12/24 05:46:41;;;;;;;6.50;2.10;;;;;;;-1.32;77.60;99687.31;108991;1256;139111;-67
2023/12/24 05:49:08;;;;;;;5.80;1.90;;;;;;;-1.26;77.62;99686.98;109068;1256;59323;-67
2023/12/24 05:51:35;;;;;;;8.50;2.10;;;;;;;-1.20;77.56;99686.29;109052;1255;138307;-67
2023/12/24 05:54:02;;;;;;;6.70;2.00;;;;;;;-1.13;77.53;99688.70;106816;1255;74751;-68
2023/12/24 05:56:28;;;;;;;6.00;1.80;;;;;;;-1.06;77.49;99684.09;104913;1256;67075;-68
2023/12/24 05:58:55;;;;;;;6.00;2.00;;;;;;;-1.01;77.43;99678.15;104994;1256;138331;-63
2023/12/24 06:01:22;;;;;;;8.30;1.80;;;;;;;-0.97;77.36;99675.61;105055;1256;61235;-63
2023/12/24 06:03:48;;;;;;;5.90;2.20;;;;;;;-0.93;77.60;99676.86;104819;1256;138125;-63
2023/12/24 06:06:15;;;;;;;5.90;2.10;;;;;;;-0.88;77.53;99678.48;104946;1260;74243;-64
2023/12/24 06:08:42;;;;;;;4.70;2.30;;;;;;;-0.84;77.50;99683.01;104830;1256;64427;-63
2023/12/24 06:11:16;;;;;;;5.90;2.30;;;;;;;-0.82;77.45;99685.23;104795;1256;139077;-63
2023/12/24 06:13:43;;;;;;;7.80;2.30;;;;;;;-0.77;77.46;99688.36;109111;1255;58949;-64
2023/12/24 06:16:11;;;;;;;7.30;2.60;;;;;;;-0.72;77.54;99692.08;108983;1256;138949;-64
2023/12/24 06:18:40;;;;;;;9.00;2.10;;;;;;;-0.69;77.43;99690.19;109095;1255;72493;-67
2023/12/24 06:21:09;;;;;;;6.30;2.40;;;;;;;-0.65;77.48;99686.44;109009;1255;66709;-67
2023/12/24 06:23:35;;;;;;;8.60;2.80;;;;;;;-0.62;77.26;99687.13;108902;1255;138630;-68
2023/12/24 06:26:02;;;;;;;5.80;2.10;;;;;;;-0.58;77.33;99690.59;109073;1255;59701;-64
2023/12/24 06:28:29;;;;;;;8.70;2.20;;;;;;;-0.54;77.14;99688.04;108879;1256;138256;-66
2023/12/24 06:30:56;;;;;;;9.70;2.40;;;;;;;-0.49;77.22;99688.27;108993;1256;73813;-64
2023/12/24 06:33:22;;;;;;;10.00;3.20;;;;;;;-0.44;77.16;99695.98;109071;1255;66159;-64
2023/12/24 06:35:49;;;;;;;4.50;2.30;;;;;;;-0.39;77.29;99693.81;108958;1255;138147;-68
2023/12/24 06:38:15;;;;;;;6.50;2.10;;;;;;;-0.33;77.39;99693.05;106684;1256;61258;-67
2023/12/24 06:40:42;;;;;;;6.90;2.20;;;;;;;-0.30;77.09;99690.99;104803;1267;137672;-68
2023/12/24 06:43:09;;;;;;;5.80;2.20;;;;;;;-0.27;77.14;99694.95;104867;1256;75697;-62
2023/12/24 06:45:35;;;;;;;3.60;2.00;;;;;;;-0.25;77.12;99695.05;104798;1258;138909;-63
2023/12/24 06:48:02;;;;;;;8.20;2.30;;;;;;;-0.24;77.21;99694.77;104952;1256;73012;-63
2023/12/24 06:50:29;;;;;;;7.00;2.50;;;;;;;-0.23;77.10;99695.80;105707;1255;61418;-63
2023/12/24 06:52:56;;;;;;;6.80;2.70;;;;;;;-0.25;77.05;99695.05;104802;1256;137623;-63
2023/12/24 06:55:23;;;;;;;5.90;2.30;;;;;;;-0.27;77.12;99692.89;104897;1256;74358;-63
2023/12/24 06:57:49;;;;;;;9.30;3.50;;;;;;;-0.30;77.13;99694.10;104843;1256;138961;-69
2023/12/24 07:00:17;;;;;;;6.70;2.60;;;;;;;-0.34;77.01;99693.55;104890;1256;72201;-67
2023/12/24 07:02:43;;;;;;;6.80;2.70;;;;;;;-0.36;77.08;99690.65;104859;1261;61269;-68
2023/12/24 07:05:10;;;;;;;10.20;3.00;;;;;;;-0.38;77.02;99686.45;104762;1260;138203;-67
2023/12/24 07:07:37;;;;;;;8.50;2.70;;;;;;;-0.40;77.11;99689.97;104998;1259;75720;-68
2023/12/24 07:10:04;;;;;;;6.70;2.90;;;;;;;-0.42;77.20;99687.81;104680;1256;138740;-63
2023/12/24 07:12:31;;;;;;;7.10;2.70;;;;;;;-0.41;77.22;99690.61;109084;1255;74269;-63
2023/12/24 07:14:57;;;;;;;5.80;2.20;;;;;;;-0.39;77.26;99687.10;109020;1256;59157;-67
2023/12/24 07:17:24;;;;;;;6.30;2.70;;;;;;;-0.35;77.35;99680.73;108982;1255;139094;-68
2023/12/24 07:19:51;;;;;;;7.50;2.80;;;;;;;-0.30;77.47;99682.38;109072;1255;74973;-68
2023/12/24 07:22:17;;;;;;;5.50;2.40;;;;;;;-0.26;77.35;99685.01;108969;1256;137666;-68
2023/12/24 07:24:44;;;;;;;7.80;2.80;;;;;;;-0.20;77.26;99689.77;109064;1256;73369;-68
2023/12/24 07:27:11;;;;;;;14.50;4.40;;;;;;;-0.15;77.42;99693.45;109039;1258;59206;-68
2023/12/24 07:29:40;;;;;;;16.10;4.90;;;;;;;-0.12;77.48;99697.95;108955;1256;137889;-67
2023/12/24 07:32:07;;;;;;;14.70;5.00;;;;;;;-0.08;77.19;99698.11;109085;1255;73776;-68
2023/12/24 07:34:34;;;;;;;15.40;5.90;;;;;;;-0.06;77.18;99699.60;109015;1256;138089;-68
2023/12/24 07:37:00;;;;;;;15.40;7.40;;;;;;;-0.06;77.19;99700.64;109051;1256;73851;-68
2023/12/24 07:39:27;;;;;;;22.10;12.90;;;;;;;-0.07;77.01;99706.80;108942;1256;139468;-67
2023/12/24 07:41:55;;;;;;;20.20;12.00;;;;;;;-0.06;76.96;99705.81;109063;1256;60208;-68
2023/12/24 07:44:22;;;;;;;43.40;20.30;;;;;;;-0.05;76.91;99707.08;108963;1256;72996;-68
2023/12/24 07:46:48;;;;;;;42.20;18.40;;;;;;;-0.04;76.97;99704.90;108981;1255;138774;-68
2023/12/24 07:49:15;;;;;;;33.90;18.10;;;;;;;-0.02;76.83;99706.35;109083;1255;71446;-68
2023/12/24 07:51:42;;;;;;;21.90;12.90;;;;;;;0.00;76.88;99707.67;108897;1255;138691;-68
2023/12/24 07:54:08;;;;;;;17.70;9.20;;;;;;;0.03;76.89;99709.73;109049;1256;59698;-68
2023/12/24 07:56:35;;;;;;;13.90;7.10;;;;;;;0.06;76.91;99714.38;109066;1256;74986;-67
2023/12/24 07:59:02;;;;;;;15.10;6.20;;;;;;;0.11;77.06;99711.34;108940;1255;138875;-68
2023/12/24 08:01:28;;;;;;;16.40;6.70;;;;;;;0.18;77.11;99704.42;109112;1255;72062;-68
2023/12/24 08:03:55;;;;;;;26.80;9.20;;;;;;;0.22;77.04;99708.09;108950;1256;137936;-67
2023/12/24 08:06:22;;;;;;;10.90;5.40;;;;;;;0.27;77.06;99704.73;108919;1255;60097;-70
2023/12/24 08:08:48;;;;;;;10.70;4.90;;;;;;;0.34;76.92;99701.94;109029;1256;74280;-68
2023/12/24 08:11:15;;;;;;;9.80;4.60;;;;;;;0.41;76.90;99703.29;108873;1256;138972;-67
2023/12/24 08:13:42;;;;;;;9.00;4.20;;;;;;;0.49;77.13;99696.77;109116;1256;71234;-67
2023/12/24 08:16:08;;;;;;;10.30;4.80;;;;;;;0.54;77.02;99700.66;108975;1255;138199;-67
2023/12/24 08:18:37;;;;;;;11.70;4.70;;;;;;;0.58;76.93;99704.81;109035;1257;59179;-68
2023/12/24 08:21:06;;;;;;;9.20;4.70;;;;;;;0.64;76.87;99706.45;109060;1254;74433;-68
2023/12/24 08:23:33;;;;;;;13.90;5.70;;;;;;;0.67;76.69;99709.92;108943;1256;138351;-67
2023/12/24 08:26:00;;;;;;;12.10;5.40;;;;;;;0.71;76.78;99706.84;109074;1254;73959;-67
2023/12/24 08:28:26;;;;;;;10.70;5.00;;;;;;;0.75;76.70;99703.38;108996;1255;139064;-67
2023/12/24 08:30:53;;;;;;;9.60;4.80;;;;;;;0.81;76.76;99691.74;109103;1255;59625;-66
2023/12/24 08:33:20;;;;;;;9.90;6.00;;;;;;;0.87;76.77;99691.69;109073;1254;75971;-67
2023/12/24 08:35:46;;;;;;;9.50;4.60;;;;;;;0.94;76.76;99691.48;108941;1256;138347;-67
2023/12/24 08:38:13;;;;;;;9.10;5.10;;;;;;;1.00;76.86;99695.91;109039;1256;73248;-67
2023/12/24 08:40:40;;;;;;;7.80;5.40;;;;;;;1.09;76.85;99693.01;108952;1257;138703;-68
2023/12/24 08:43:06;;;;;;;10.60;6.00;;;;;;;1.19;76.88;99691.56;109100;1256;60436;-63
2023/12/24 08:45:33;;;;;;;11.40;6.50;;;;;;;1.28;76.76;99691.61;108961;1255;138218;-63
2023/12/24 08:47:59;;;;;;;10.80;6.20;;;;;;;1.35;76.68;99691.77;109050;1256;64686;-64
2023/12/24 08:50:26;;;;;;;10.60;6.00;;;;;;;1.43;76.63;99686.61;109011;1256;72876;-63
2023/12/24 08:52:53;;;;;;;12.80;6.10;;;;;;;1.51;76.67;99685.21;106770;1256;139144;-67
2023/12/24 08:55:20;;;;;;;13.00;5.60;;;;;;;1.55;76.59;99687.84;104994;1258;61417;-68
2023/12/24 08:57:47;;;;;;;9.90;6.10;;;;;;;1.60;76.46;99689.77;104928;1258;138173;-63
2023/12/24 09:00:14;;;;;;;15.10;6.10;;;;;;;1.64;76.41;99685.77;109008;1255;67123;-63
2023/12/24 09:02:41;;;;;;;14.80;7.80;;;;;;;1.69;76.54;99683.08;109074;1256;70885;-68
2023/12/24 09:05:07;;;;;;;61.50;26.30;;;;;;;1.75;76.45;99678.64;108951;1255;137744;-68
2023/12/24 09:07:34;;;;;;;58.40;25.80;;;;;;;1.76;76.44;99678.19;109011;1256;59508;-68
2023/12/24 09:10:01;;;;;;;43.40;20.80;;;;;;;1.78;76.45;99678.44;108969;1256;138674;-67
2023/12/24 09:12:28;;;;;;;36.50;17.80;;;;;;;1.83;76.51;99677.77;109065;1256;64559;-67
2023/12/24 09:14:55;;;;;;;24.80;13.20;;;;;;;1.87;76.41;99677.77;106957;1256;75453;-63
2023/12/24 09:17:22;;;;;;;23.20;12.00;;;;;;;1.92;76.43;99680.39;104992;1259;138444;-63
2023/12/24 09:19:48;;;;;;;14.60;7.90;;;;;;;2.00;76.53;99682.82;105033;1256;61333;-64
2023/12/24 09:22:15;;;;;;;13.80;7.20;;;;;;;2.07;76.52;99682.95;104865;1259;138185;-69
2023/12/24 09:24:42;;;;;;;12.70;7.60;;;;;;;2.16;76.67;99674.48;104975;1255;67505;-63
2023/12/24 09:27:08;;;;;;;14.80;8.10;;;;;;;2.25;76.69;99661.85;105002;1261;72959;-67
2023/12/24 09:29:35;;;;;;;19.70;11.00;;;;;;;2.30;76.45;99660.68;104892;1261;137949;-67
2023/12/24 09:32:02;;;;;;;38.40;19.00;;;;;;;2.29;76.32;99666.17;105101;1259;61253;-69
2023/12/24 09:34:28;;;;;;;39.40;20.10;;;;;;;2.29;76.44;99664.61;104762;1259;138187;-69
2023/12/24 09:36:55;;;;;;;31.60;18.70;;;;;;;2.28;76.34;99657.84;104941;1256;66767;-68
2023/12/24 09:39:22;;;;;;;36.90;22.10;;;;;;;2.26;76.22;99653.95;105040;1256;73103;-63
2023/12/24 09:41:49;;;;;;;69.10;36.50;;;;;;;2.22;76.38;99646.19;104963;1256;138404;-63
2023/12/24 09:44:16;;;;;;;68.90;37.70;;;;;;;2.22;76.60;99640.79;104915;1258;61237;-62
2023/12/24 09:46:42;;;;;;;57.50;29.80;;;;;;;2.23;76.53;99631.14;104830;1256;138454;-63
2023/12/24 09:49:09;;;;;;;40.80;22.90;;;;;;;2.26;76.53;99630.56;105136;1256;66016;-62
2023/12/24 09:51:36;;;;;;;50.50;27.30;;;;;;;2.30;76.84;99626.41;104947;1261;138832;-64
2023/12/24 09:54:03;;;;;;;41.10;23.80;;;;;;;2.33;76.61;99621.85;104843;1262;61365;-65
2023/12/24 09:56:30;;;;;;;33.20;17.40;;;;;;;2.33;76.81;99618.23;105085;1258;61259;-64
2023/12/24 09:58:56;;;;;;;28.70;15.60;;;;;;;2.38;76.81;99616.14;104831;1258;138008;-68
2023/12/24 10:01:23;;;;;;;32.80;16.90;;;;;;;2.40;76.77;99616.95;104985;1256;65888;-68
2023/12/24 10:03:50;;;;;;;47.30;25.70;;;;;;;2.41;76.66;99618.02;104907;1256;140684;-68
2023/12/24 10:06:17;;;;;;;42.70;23.80;;;;;;;2.42;76.80;99610.62;105057;1260;61234;-68
2023/12/24 10:08:44;;;;;;;44.10;22.90;;;;;;;2.45;76.84;99605.54;109048;1255;59462;-68
2023/12/24 10:11:16;;;;;;;32.20;17.50;;;;;;;2.48;76.93;99595.28;108961;1256;137751;-68
2023/12/24 10:13:43;;;;;;;42.70;22.30;;;;;;;2.53;77.00;99588.19;109018;1256;67009;-69
2023/12/24 10:16:10;;;;;;;31.50;17.50;;;;;;;2.59;76.95;99579.73;108982;1255;138947;-69
2023/12/24 10:18:37;;;;;;;36.10;19.50;;;;;;;2.64;76.95;99584.45;109035;1260;59415;-69
2023/12/24 10:21:09;;;;;;;39.10;23.10;;;;;;;2.64;76.84;99584.61;109027;1255;59201;-69
2023/12/24 10:23:36;;;;;;;24.80;15.90;;;;;;;2.65;76.85;99583.09;108968;1256;139089;-67
2023/12/24 10:26:04;;;;;;;26.30;14.80;;;;;;;2.67;77.00;99580.75;109089;1256;63792;-67
2023/12/24 10:28:32;;;;;;;34.80;15.00;;;;;;;2.70;76.83;99585.02;108932;1256;138697;-62
2023/12/24 10:31:06;;;;;;;31.10;16.00;;;;;;;2.73;77.03;99587.73;109004;1256;59254;-63
2023/12/24 10:33:33;;;;;;;31.60;14.40;;;;;;;2.76;77.00;99589.39;108938;1256;138466;-63
2023/12/24 10:36:00;;;;;;;30.50;16.50;;;;;;;2.78;76.99;99593.11;107898;1254;74807;-63
2023/12/24 10:38:27;;;;;;;29.00;14.90;;;;;;;2.80;77.00;99590.05;104930;1256;65625;-68
2023/12/24 10:40:54;;;;;;;29.60;14.80;;;;;;;2.84;77.19;99588.66;104645;1256;204739;-67
2023/12/24 10:43:20;;;;;;;34.40;17.10;;;;;;;2.88;77.15;99591.22;104891;1259;61450;-68
2023/12/24 10:45:47;;;;;;;38.70;20.70;;;;;;;2.89;77.07;99589.19;104745;1261;138412;-67
2023/12/24 10:48:14;;;;;;;40.10;18.90;;;;;;;2.88;77.16;99586.38;104993;1256;72703;-67
2023/12/24 10:50:41;;;;;;;35.70;15.60;;;;;;;2.91;77.28;99580.26;105030;1256;66862;-67
2023/12/24 10:53:07;;;;;;;33.10;14.90;;;;;;;2.95;77.29;99577.80;104893;1256;138699;-67
2023/12/24 10:55:34;;;;;;;25.80;14.40;;;;;;;2.99;77.47;99576.02;104921;1258;61375;-64
2023/12/24 10:58:07;;;;;;;26.00;15.00;;;;;;;3.03;77.32;99573.04;107197;1256;139205;-63
2023/12/24 11:00:33;;;;;;;47.20;23.50;;;;;;;3.03;77.21;99570.27;109030;1255;74599;-63
2023/12/24 11:03:00;;;;;;;35.10;19.60;;;;;;;3.02;77.14;99565.92;109061;1256;65984;-64
2023/12/24 11:05:43;;;;;;;47.30;24.10;;;;;;;3.04;77.19;99565.45;108963;1256;139207;-63
2023/12/24 11:08:19;;;;;;;44.80;25.30;;;;;;;3.10;77.25;99565.51;109062;1256;59013;-64
2023/12/24 11:10:53;;;;;;;42.90;25.20;;;;;;;3.14;77.32;99571.18;105396;1256;139068;-63
2023/12/24 11:13:32;;;;;;;42.20;23.50;;;;;;;3.16;77.12;99571.25;104965;1261;75901;-63
2023/12/24 11:16:00;;;;;;;41.40;23.80;;;;;;;3.17;77.26;99575.29;104786;1259;138232;-65
2023/12/24 11:18:42;;;;;;;38.50;21.20;;;;;;;3.24;77.31;99570.66;108997;1256;73751;-63